createdAt,value
2023-01-18T00:02:17.962Z,-0.40
2023-01-18T00:04:49.740Z,-0.40
2023-01-18T00:07:23.910Z,-0.50
2023-01-18T00:09:56.772Z,-0.50
2023-01-18T00:12:30.953Z,-0.40
2023-01-18T00:15:02.755Z,-0.40
2023-01-18T00:17:47.825Z,-0.40
2023-01-18T00:20:23.913Z,-0.50
2023-01-18T00:22:56.123Z,-0.50
2023-01-18T00:25:28.695Z,-0.50
2023-01-18T00:28:02.922Z,-0.50
2023-01-18T00:30:34.728Z,-0.60
2023-01-18T00:33:06.558Z,-0.60
2023-01-18T00:35:40.657Z,-0.60
2023-01-18T00:38:13.626Z,-0.60
2023-01-18T00:40:45.368Z,-0.70
2023-01-18T00:43:35.889Z,-0.70
2023-01-18T00:46:17.579Z,-0.80
2023-01-18T00:48:49.946Z,-0.80
2023-01-18T00:51:23.033Z,-0.90
2023-01-18T00:53:57.309Z,-0.90
2023-01-18T00:56:29.063Z,-1.00
2023-01-18T00:59:00.981Z,-1.00
2023-01-18T01:01:32.862Z,-1.00
2023-01-18T01:04:25.261Z,-0.90
2023-01-18T01:06:57.136Z,-1.00
2023-01-18T01:09:30.012Z,-1.00
2023-01-18T01:12:20.540Z,-1.00
2023-01-18T01:15:10.790Z,-1.00
2023-01-18T01:18:01.221Z,-1.00
2023-01-18T01:20:51.565Z,-0.90
2023-01-18T01:23:43.769Z,-0.90
2023-01-18T01:26:15.622Z,-0.90
2023-01-18T01:28:51.328Z,-0.90
2023-01-18T01:31:23.138Z,-0.90
2023-01-18T01:33:54.948Z,-1.00
2023-01-18T01:36:28.589Z,-1.00
2023-01-18T01:39:02.766Z,-1.00
2023-01-18T01:41:35.231Z,-1.00
2023-01-18T01:44:24.616Z,-1.10
2023-01-18T01:47:05.220Z,-1.10
2023-01-18T01:49:41.585Z,-1.20
2023-01-18T01:52:17.516Z,-1.20
2023-01-18T01:55:00.060Z,-1.20
2023-01-18T01:57:34.801Z,-1.20
2023-01-18T02:00:06.717Z,-1.20
2023-01-18T02:02:39.271Z,-1.30
2023-01-18T02:05:12.950Z,-1.30
2023-01-18T02:07:45.036Z,-1.30
2023-01-18T02:10:17.025Z,-1.30
2023-01-18T02:12:50.175Z,-1.30
2023-01-18T02:15:23.198Z,-1.30
2023-01-18T02:17:55.114Z,-1.30
2023-01-18T02:20:45.606Z,-1.30
2023-01-18T02:23:43.523Z,-1.30
2023-01-18T02:26:33.842Z,-1.30
2023-01-18T02:29:05.714Z,-1.40
2023-01-18T02:31:41.489Z,-1.40
2023-01-18T02:34:16.611Z,-1.40
2023-01-18T02:37:03.601Z,-1.30
2023-01-18T02:39:41.404Z,-1.30
2023-01-18T02:42:37.412Z,-1.40
2023-01-18T02:45:59.860Z,-1.40
2023-01-18T02:48:38.893Z,-1.40
2023-01-18T02:51:10.742Z,-1.40
2023-01-18T02:53:43.630Z,-1.50
2023-01-18T02:56:23.877Z,-1.50
2023-01-18T02:59:01.997Z,-1.50
2023-01-18T03:01:39.802Z,-1.60
2023-01-18T03:04:22.778Z,-1.60
2023-01-18T03:06:59.253Z,-1.60
2023-01-18T03:09:31.320Z,-1.60
2023-01-18T03:12:05.880Z,-1.70
2023-01-18T03:14:46.238Z,-1.60
2023-01-18T03:17:18.025Z,-1.60
2023-01-18T03:20:05.970Z,-1.70
2023-01-18T03:22:56.625Z,-1.60
2023-01-18T03:25:32.196Z,-1.60
2023-01-18T03:28:30.569Z,-1.60
2023-01-18T03:31:23.467Z,-1.60
2023-01-18T03:33:58.797Z,-1.60
2023-01-18T03:36:32.674Z,-1.60
2023-01-18T03:39:13.240Z,-1.60
2023-01-18T03:41:47.901Z,-1.60
2023-01-18T03:44:22.763Z,-1.60
2023-01-18T03:46:57.445Z,-1.60
2023-01-18T03:49:29.564Z,-1.60
2023-01-18T03:52:03.410Z,-1.60
2023-01-18T03:54:43.461Z,-1.60
2023-01-18T03:57:41.505Z,-1.50
2023-01-18T04:00:14.173Z,-1.50
2023-01-18T04:02:47.189Z,-1.50
2023-01-18T04:05:21.237Z,-1.50
2023-01-18T04:07:53.055Z,-1.50
2023-01-18T04:10:24.863Z,-1.50
2023-01-18T04:12:57.736Z,-1.50
2023-01-18T04:15:29.754Z,-1.50
2023-01-18T04:18:01.500Z,-1.40
2023-01-18T04:20:33.306Z,-1.40
2023-01-18T04:23:05.038Z,-1.40
2023-01-18T04:25:38.575Z,-1.40
2023-01-18T04:28:10.318Z,-1.40
2023-01-18T04:30:42.148Z,-1.40
2023-01-18T04:33:13.887Z,-1.30
2023-01-18T04:35:45.694Z,-1.30
2023-01-18T04:38:17.480Z,-1.30
2023-01-18T04:40:50.177Z,-1.20
2023-01-18T04:43:21.943Z,-1.30
2023-01-18T04:45:57.257Z,-1.20
2023-01-18T04:48:29.039Z,-1.20
2023-01-18T04:51:03.241Z,-1.20
2023-01-18T04:53:35.411Z,-1.20
2023-01-18T04:56:07.295Z,-1.20
2023-01-18T04:58:41.362Z,-1.20
2023-01-18T05:01:14.274Z,-1.20
2023-01-18T05:03:46.284Z,-1.20
2023-01-18T05:06:20.031Z,-1.20
2023-01-18T05:08:52.511Z,-1.20
2023-01-18T05:11:24.392Z,-1.20
2023-01-18T05:13:56.126Z,-1.20
2023-01-18T05:16:28.304Z,-1.20
2023-01-18T05:19:00.127Z,-1.20
2023-01-18T05:21:32.012Z,-1.20
2023-01-18T05:24:03.810Z,-1.20
2023-01-18T05:26:36.464Z,-1.20
2023-01-18T05:29:10.553Z,-1.20
2023-01-18T05:31:42.385Z,-1.20
2023-01-18T05:34:14.220Z,-1.20
2023-01-18T05:36:47.349Z,-1.20
2023-01-18T05:39:19.116Z,-1.20
2023-01-18T05:41:50.971Z,-1.20
2023-01-18T05:44:22.802Z,-1.20
2023-01-18T05:46:54.565Z,-1.20
2023-01-18T05:49:26.343Z,-1.20
2023-01-18T05:51:58.121Z,-1.20
2023-01-18T05:54:29.885Z,-1.20
2023-01-18T05:57:04.180Z,-1.20
2023-01-18T05:59:35.959Z,-1.20
2023-01-18T06:02:07.863Z,-1.20
2023-01-18T06:04:39.919Z,-1.30
2023-01-18T06:07:11.805Z,-1.30
2023-01-18T06:09:43.593Z,-1.30
2023-01-18T06:12:17.620Z,-1.30
2023-01-18T06:14:49.396Z,-1.40
2023-01-18T06:17:21.497Z,-1.40
2023-01-18T06:19:53.405Z,-1.40
2023-01-18T06:22:25.187Z,-1.40
2023-01-18T06:24:56.935Z,-1.40
2023-01-18T06:27:28.736Z,-1.40
2023-01-18T06:30:00.482Z,-1.50
2023-01-18T06:32:34.683Z,-1.50
2023-01-18T06:35:06.687Z,-1.50
2023-01-18T06:37:38.463Z,-1.50
2023-01-18T06:40:10.718Z,-1.50
2023-01-18T06:42:42.525Z,-1.60
2023-01-18T06:45:16.238Z,-1.50
2023-01-18T06:47:50.642Z,-1.50
2023-01-18T06:50:22.684Z,-1.50
2023-01-18T06:52:56.041Z,-1.50
2023-01-18T06:55:30.425Z,-1.50
2023-01-18T06:58:02.820Z,-1.50
2023-01-18T07:00:35.063Z,-1.50
2023-01-18T07:03:10.760Z,-1.40
2023-01-18T07:05:46.518Z,-1.40
2023-01-18T07:08:21.091Z,-1.40
2023-01-18T07:10:53.213Z,-1.40
2023-01-18T07:13:25.678Z,-1.30
2023-01-18T07:16:01.124Z,-1.30
2023-01-18T07:18:33.105Z,-1.30
2023-01-18T07:21:08.681Z,-1.30
2023-01-18T07:23:41.091Z,-1.20
2023-01-18T07:26:16.211Z,-1.20
2023-01-18T07:28:48.328Z,-1.20
2023-01-18T07:31:20.185Z,-1.10
2023-01-18T07:33:52.415Z,-1.10
2023-01-18T07:36:24.258Z,-1.10
2023-01-18T07:38:56.094Z,-1.00
2023-01-18T07:41:29.461Z,-1.00
2023-01-18T07:44:04.097Z,-1.00
2023-01-18T07:46:35.918Z,-1.00
2023-01-18T07:49:07.712Z,-0.90
2023-01-18T07:51:39.463Z,-0.90
2023-01-18T07:54:11.441Z,-0.90
2023-01-18T07:56:43.238Z,-1.00
2023-01-18T07:59:15.997Z,-1.00
2023-01-18T08:01:47.840Z,-1.00
2023-01-18T08:04:19.640Z,-0.90
2023-01-18T08:06:51.628Z,-0.90
2023-01-18T08:09:23.435Z,-0.80
2023-01-18T08:11:57.557Z,-0.80
2023-01-18T08:14:29.366Z,-0.70
2023-01-18T08:17:01.147Z,-0.60
2023-01-18T08:19:32.931Z,-0.50
2023-01-18T08:22:04.710Z,-0.50
2023-01-18T08:24:36.569Z,-0.40
2023-01-18T08:27:08.315Z,-0.30
2023-01-18T08:29:40.120Z,-0.30
2023-01-18T08:32:14.067Z,-0.20
2023-01-18T08:34:48.344Z,-0.10
2023-01-18T08:37:20.092Z,-0.10
2023-01-18T08:39:54.740Z,-0.10
2023-01-18T08:42:26.583Z,0.00
2023-01-18T08:44:58.389Z,0.00
2023-01-18T08:47:30.185Z,0.00
2023-01-18T08:50:02.056Z,0.00
2023-01-18T08:52:35.820Z,0.10
2023-01-18T08:55:08.027Z,0.10
2023-01-18T08:57:39.828Z,0.20
2023-01-18T09:00:12.273Z,0.20
2023-01-18T09:02:44.118Z,0.30
2023-01-18T09:05:18.468Z,0.40
2023-01-18T09:07:52.612Z,0.40
2023-01-18T09:10:24.464Z,0.50
2023-01-18T09:12:56.517Z,0.60
2023-01-18T09:15:29.358Z,0.60
2023-01-18T09:18:06.115Z,0.60
2023-01-18T09:20:38.057Z,0.60
2023-01-18T09:23:10.259Z,0.60
2023-01-18T09:25:42.081Z,0.60
2023-01-18T09:28:13.939Z,0.60
2023-01-18T09:30:48.111Z,0.60
2023-01-18T09:33:19.926Z,0.70
2023-01-18T09:35:51.847Z,0.80
2023-01-18T09:38:23.748Z,0.90
2023-01-18T09:40:55.626Z,1.00
2023-01-18T09:43:32.707Z,1.10
2023-01-18T09:46:05.051Z,1.20
2023-01-18T09:48:40.693Z,1.20
2023-01-18T09:51:22.912Z,1.30
2023-01-18T09:53:57.711Z,1.40
2023-01-18T09:56:32.790Z,1.50
2023-01-18T09:59:07.665Z,1.60
2023-01-18T10:01:39.829Z,1.70
2023-01-18T10:04:17.282Z,1.80
2023-01-18T10:06:49.094Z,1.80
2023-01-18T10:09:20.825Z,1.80
2023-01-18T10:11:54.421Z,1.80
2023-01-18T10:14:29.226Z,1.90
2023-01-18T10:17:03.149Z,1.90
2023-01-18T10:19:34.997Z,1.80
2023-01-18T10:22:25.448Z,1.80
2023-01-18T10:25:02.475Z,1.80
2023-01-18T10:27:39.390Z,1.90
2023-01-18T10:30:14.267Z,1.90
2023-01-18T10:32:52.633Z,2.00
2023-01-18T10:35:35.033Z,2.00
2023-01-18T10:38:08.982Z,2.10
2023-01-18T10:40:50.044Z,2.10
2023-01-18T10:43:23.660Z,2.20
2023-01-18T10:45:58.449Z,2.30
2023-01-18T10:48:34.198Z,2.30
2023-01-18T10:51:07.977Z,2.30
2023-01-18T10:53:40.017Z,2.40
2023-01-18T10:56:21.329Z,2.40
2023-01-18T10:58:53.136Z,2.50
2023-01-18T11:01:36.182Z,2.50
2023-01-18T11:04:20.962Z,2.60
2023-01-18T11:06:56.734Z,2.60
2023-01-18T11:09:42.920Z,2.60
2023-01-18T11:12:34.915Z,2.60
2023-01-18T11:15:16.006Z,2.60
2023-01-18T11:17:50.498Z,2.50
2023-01-18T11:20:30.951Z,2.50
2023-01-18T11:23:05.181Z,2.50
2023-01-18T11:25:39.792Z,2.50
2023-01-18T11:28:20.079Z,2.50
2023-01-18T11:31:13.908Z,2.60
2023-01-18T11:33:54.140Z,2.50
2023-01-18T11:36:37.848Z,2.60
2023-01-18T11:39:25.805Z,2.60
2023-01-18T11:42:17.220Z,2.60
2023-01-18T11:44:52.048Z,2.60
2023-01-18T11:47:28.874Z,2.60
2023-01-18T11:50:28.355Z,2.60
2023-01-18T11:53:00.797Z,2.60
2023-01-18T11:55:34.984Z,2.70
2023-01-18T11:58:19.486Z,2.70
2023-01-18T12:00:55.763Z,2.70
2023-01-18T12:03:33.632Z,2.70
2023-01-18T12:06:17.600Z,2.70
2023-01-18T12:08:55.091Z,2.70
2023-01-18T12:11:26.797Z,2.70
2023-01-18T12:14:07.214Z,2.70
2023-01-18T12:16:41.705Z,2.70
2023-01-18T12:19:22.780Z,2.70
2023-01-18T12:22:13.439Z,2.80
2023-01-18T12:24:48.038Z,2.80
2023-01-18T12:27:40.104Z,2.80
2023-01-18T12:30:33.045Z,2.90
2023-01-18T12:33:13.924Z,2.90
2023-01-18T12:35:45.732Z,2.80
2023-01-18T12:38:28.561Z,2.80
2023-01-18T12:41:00.400Z,2.80
2023-01-18T12:43:49.095Z,2.80
2023-01-18T12:46:20.930Z,2.80
2023-01-18T12:48:52.735Z,2.80
2023-01-18T12:51:25.884Z,2.80
2023-01-18T12:54:11.753Z,2.80
2023-01-18T12:56:47.631Z,2.80
2023-01-18T12:59:20.732Z,2.90
2023-01-18T13:02:00.499Z,2.90
2023-01-18T13:04:38.066Z,2.90
2023-01-18T13:07:13.089Z,3.00
2023-01-18T13:09:46.966Z,3.00
2023-01-18T13:12:24.297Z,3.00
2023-01-18T13:15:03.612Z,3.00
2023-01-18T13:17:48.606Z,3.00
2023-01-18T13:20:25.630Z,2.90
2023-01-18T13:23:20.719Z,2.90
2023-01-18T13:26:11.503Z,2.90
2023-01-18T13:28:44.228Z,2.80
2023-01-18T13:31:18.884Z,2.80
2023-01-18T13:33:56.450Z,2.80
2023-01-18T13:36:28.271Z,2.70
2023-01-18T13:39:07.043Z,2.70
2023-01-18T13:41:38.838Z,2.70
2023-01-18T13:44:26.990Z,2.70
2023-01-18T13:47:02.088Z,2.60
2023-01-18T13:49:38.211Z,2.60
2023-01-18T13:52:29.533Z,2.60
2023-01-18T13:55:02.811Z,2.60
2023-01-18T13:57:35.379Z,2.60
2023-01-18T14:00:07.687Z,2.50
2023-01-18T14:02:50.311Z,2.50
2023-01-18T14:05:29.899Z,2.50
2023-01-18T14:08:02.026Z,2.50
2023-01-18T14:10:38.003Z,2.50
2023-01-18T14:13:14.398Z,2.50
2023-01-18T14:15:50.404Z,2.50
2023-01-18T14:18:26.498Z,2.50
2023-01-18T14:21:17.413Z,2.50
